KBRL/BRL METAR and TAF weather

Enter ICAO airport designator
Station Type Date Time Source
KBRL METAR 2019/05/26 22:53 UTC NOAA

KBRL 262253Z AUTO 09006KT 10SM FEW035 BKN050 24/17 A3003 RMK AO2 SLP163 T02440172


Station Type Date Time Source
KBRL Decoded METAR 2019/05/26 22:53 UTC NOAA

BURLINGTON REGIONAL AIRPORT, IA, United States (KBRL) 40-46N 91-08W 211M
May 26, 2019 - 06:53 PM EDT / 2019.05.26 2253 UTC
Wind: from the E (090 degrees) at 7 MPH (6 KT):0
Visibility: 10 mile(s):0
Sky conditions: mostly cloudy
Temperature: 75.9 F (24.4 C)
Dew Point: 63.0 F (17.2 C)
Relative Humidity: 64%
Pressure (altimeter): 30.03 in. Hg (1016 hPa)
ob: KBRL 262253Z AUTO 09006KT 10SM FEW035 BKN050 24/17 A3003 RMK AO2 SLP163 T02440172
cycle: 23

Station Type Date Time Source
KBRL TAF 2019/05/26 18:42 UTC NOAA

TAF KBRL 261740Z 2618/2718 VRB05KT P6SM SCT040
FM270800 09007KT P6SM SCT040
FM271100 11013G18KT P6SM -TSRA SCT025 BKN040CB
FM271500 15015G23KT P6SM SCT025 BKN035

Example: see airport list